sensor_id;sensor_type;location;lat;lon;timestamp;pressure;altitude;pressure_sealevel;temperature;humidity
69737;BME280;64476;55.004;73.342;2023-02-12T00:00:16;102254.94;;;-20.64;47.27
69737;BME280;64476;55.004;73.342;2023-02-12T00:03:19;102194.03;;;-21.00;47.20
69737;BME280;64476;55.004;73.342;2023-02-12T00:06:21;102184.19;;;-21.14;46.90
69737;BME280;64476;55.004;73.342;2023-02-12T00:09:54;102209.31;;;-20.94;47.22
69737;BME280;64476;55.004;73.342;2023-02-12T00:13:06;102249.03;;;-20.66;46.54
69737;BME280;64476;55.004;73.342;2023-02-12T00:16:10;102268.06;;;-20.52;46.32
69737;BME280;64476;55.004;73.342;2023-02-12T00:19:22;102180.75;;;-20.99;46.86
69737;BME280;64476;55.004;73.342;2023-02-12T00:22:24;102237.44;;;-20.64;47.45
69737;BME280;64476;55.004;73.342;2023-02-12T00:25:26;102264.31;;;-20.44;47.11
69737;BME280;64476;55.004;73.342;2023-02-12T00:28:34;102258.13;;;-20.50;47.30
69737;BME280;64476;55.004;73.342;2023-02-12T00:31:36;102263.78;;;-20.54;47.09
69737;BME280;64476;55.004;73.342;2023-02-12T00:34:38;102261.34;;;-20.53;46.97
69737;BME280;64476;55.004;73.342;2023-02-12T00:37:41;102222.56;;;-20.79;46.81
69737;BME280;64476;55.004;73.342;2023-02-12T00:40:47;102246.81;;;-20.78;46.22
69737;BME280;64476;55.004;73.342;2023-02-12T00:43:49;102205.03;;;-21.13;46.23
69737;BME280;64476;55.004;73.342;2023-02-12T00:46:51;102265.06;;;-20.95;46.41
69737;BME280;64476;55.004;73.342;2023-02-12T00:49:52;102193.91;;;-21.51;47.75
69737;BME280;64476;55.004;73.342;2023-02-12T00:52:54;102262.31;;;-21.16;46.80
69737;BME280;64476;55.004;73.342;2023-02-12T00:56:06;102271.53;;;-20.99;46.37
69737;BME280;64476;55.004;73.342;2023-02-12T00:59:07;102255.38;;;-21.06;46.81
69737;BME280;64476;55.004;73.342;2023-02-12T01:02:42;102241.25;;;-21.21;47.60
69737;BME280;64476;55.004;73.342;2023-02-12T01:05:47;102255.88;;;-21.27;47.60
69737;BME280;64476;55.004;73.342;2023-02-12T01:08:52;102226.44;;;-21.49;47.66
69737;BME280;64476;55.004;73.342;2023-02-12T01:11:54;102158.44;;;-21.93;47.61
69737;BME280;64476;55.004;73.342;2023-02-12T01:14:55;102200.53;;;-21.51;47.61
69737;BME280;64476;55.004;73.342;2023-02-12T01:18:07;102266.59;;;-20.97;47.83
69737;BME280;64476;55.004;73.342;2023-02-12T01:21:11;102255.94;;;-21.11;48.25
69737;BME280;64476;55.004;73.342;2023-02-12T01:24:14;102274.09;;;-20.97;47.36
69737;BME280;64476;55.004;73.342;2023-02-12T01:27:19;102243.03;;;-21.19;47.45
69737;BME280;64476;55.004;73.342;2023-02-12T01:30:20;102280.13;;;-20.94;47.40
69737;BME280;64476;55.004;73.342;2023-02-12T01:33:25;102259.91;;;-21.15;47.30
69737;BME280;64476;55.004;73.342;2023-02-12T01:36:34;102266.44;;;-21.33;46.92
69737;BME280;64476;55.004;73.342;2023-02-12T01:39:41;102288.47;;;-21.41;47.69
69737;BME280;64476;55.004;73.342;2023-02-12T01:42:49;102282.97;;;-21.50;46.90
69737;BME280;64476;55.004;73.342;2023-02-12T01:49:40;102250.22;;;-21.87;47.52
69737;BME280;64476;55.004;73.342;2023-02-12T01:52:46;102300.56;;;-21.48;47.42
69737;BME280;64476;55.004;73.342;2023-02-12T01:55:56;102275.22;;;-21.40;47.27
69737;BME280;64476;55.004;73.342;2023-02-12T02:05:57;102278.09;;;-21.01;47.84
69737;BME280;64476;55.004;73.342;2023-02-12T02:09:02;102280.38;;;-20.89;47.95
69737;BME280;64476;55.004;73.342;2023-02-12T02:12:07;102193.84;;;-21.36;47.71
69737;BME280;64476;55.004;73.342;2023-02-12T02:16:16;102256.94;;;-20.91;47.54
69737;BME280;64476;55.004;73.342;2023-02-12T02:19:38;102263.13;;;-20.85;47.77
69737;BME280;64476;55.004;73.342;2023-02-12T02:40:46;102262.56;;;-20.95;47.17
69737;BME280;64476;55.004;73.342;2023-02-12T02:43:50;102344.25;;;-20.45;47.10
69737;BME280;64476;55.004;73.342;2023-02-12T02:46:53;102347.03;;;-20.39;47.87
69737;BME280;64476;55.004;73.342;2023-02-12T02:50:00;102351.34;;;-20.37;47.75
69737;BME280;64476;55.004;73.342;2023-02-12T02:53:40;102349.78;;;-20.35;47.83
69737;BME280;64476;55.004;73.342;2023-02-12T02:56:46;102263.66;;;-20.74;48.29
69737;BME280;64476;55.004;73.342;2023-02-12T02:59:53;102334.22;;;-20.29;48.42
69737;BME280;64476;55.004;73.342;2023-02-12T03:09:57;102341.84;;;-20.10;47.51
69737;BME280;64476;55.004;73.342;2023-02-12T03:13:11;102286.03;;;-20.43;46.80
69737;BME280;64476;55.004;73.342;2023-02-12T03:20:17;102338.50;;;-20.10;47.32
69737;BME280;64476;55.004;73.342;2023-02-12T03:23:47;102334.28;;;-20.11;46.95
69737;BME280;64476;55.004;73.342;2023-02-12T03:30:05;102321.56;;;-20.16;46.27
69737;BME280;64476;55.004;73.342;2023-02-12T03:33:28;102350.47;;;-20.04;46.08
69737;BME280;64476;55.004;73.342;2023-02-12T03:36:50;102352.88;;;-20.06;46.21
69737;BME280;64476;55.004;73.342;2023-02-12T03:40:05;102347.66;;;-20.11;45.57
69737;BME280;64476;55.004;73.342;2023-02-12T03:50:25;102303.38;;;-20.46;47.17
69737;BME280;64476;55.004;73.342;2023-02-12T03:53:28;102306.88;;;-20.42;46.91
69737;BME280;64476;55.004;73.342;2023-02-12T04:00:22;102345.47;;;-20.04;47.28
69737;BME280;64476;55.004;73.342;2023-02-12T04:03:25;102364.75;;;-19.86;46.47
69737;BME280;64476;55.004;73.342;2023-02-12T04:06:28;102354.53;;;-19.72;47.05
69737;BME280;64476;55.004;73.342;2023-02-12T04:09:31;102332.56;;;-19.78;46.53
69737;BME280;64476;55.004;73.342;2023-02-12T04:19:03;102321.59;;;-19.62;45.98
69737;BME280;64476;55.004;73.342;2023-02-12T04:33:05;102310.94;;;-19.22;46.08
69737;BME280;64476;55.004;73.342;2023-02-12T04:36:14;102268.31;;;-19.42;45.90
69737;BME280;64476;55.004;73.342;2023-02-12T04:39:21;102315.72;;;-19.09;46.05
69737;BME280;64476;55.004;73.342;2023-02-12T04:42:45;102295.59;;;-19.11;46.36
69737;BME280;64476;55.004;73.342;2023-02-12T04:45:52;102273.00;;;-19.12;45.86
69737;BME280;64476;55.004;73.342;2023-02-12T04:48:56;102312.72;;;-18.82;46.21
69737;BME280;64476;55.004;73.342;2023-02-12T04:52:03;102272.16;;;-18.93;46.01
69737;BME280;64476;55.004;73.342;2023-02-12T04:55:05;102242.47;;;-19.03;46.23
69737;BME280;64476;55.004;73.342;2023-02-12T04:58:07;102311.28;;;-18.58;46.52
69737;BME280;64476;55.004;73.342;2023-02-12T05:01:09;102300.66;;;-18.52;46.33
69737;BME280;64476;55.004;73.342;2023-02-12T05:04:13;102305.06;;;-18.47;46.66
69737;BME280;64476;55.004;73.342;2023-02-12T05:07:15;102283.19;;;-18.70;46.58
69737;BME280;64476;55.004;73.342;2023-02-12T05:10:17;102266.34;;;-18.73;46.82
69737;BME280;64476;55.004;73.342;2023-02-12T05:13:19;102249.31;;;-18.80;46.59
69737;BME280;64476;55.004;73.342;2023-02-12T05:16:21;102266.34;;;-18.73;46.71
69737;BME280;64476;55.004;73.342;2023-02-12T05:19:33;102225.91;;;-19.00;47.03
69737;BME280;64476;55.004;73.342;2023-02-12T05:22:34;102305.81;;;-18.49;46.55
69737;BME280;64476;55.004;73.342;2023-02-12T05:25:36;102296.13;;;-18.40;47.03
69737;BME280;64476;55.004;73.342;2023-02-12T05:28:38;102278.88;;;-18.32;46.76
69737;BME280;64476;55.004;73.342;2023-02-12T05:31:39;102280.97;;;-18.22;47.12
69737;BME280;64476;55.004;73.342;2023-02-12T05:34:51;102275.13;;;-18.23;47.54
69737;BME280;64476;55.004;73.342;2023-02-12T05:37:55;102275.25;;;-18.20;47.44
69737;BME280;64476;55.004;73.342;2023-02-12T05:41:09;102280.63;;;-18.10;46.66
69737;BME280;64476;55.004;73.342;2023-02-12T05:44:11;102302.44;;;-17.89;47.02
69737;BME280;64476;55.004;73.342;2023-02-12T05:47:20;102305.50;;;-17.75;47.26
69737;BME280;64476;55.004;73.342;2023-02-12T05:50:21;102261.38;;;-17.91;46.70
69737;BME280;64476;55.004;73.342;2023-02-12T05:53:34;102293.38;;;-17.64;47.03
69737;BME280;64476;55.004;73.342;2023-02-12T05:56:40;102262.97;;;-17.70;47.10
69737;BME280;64476;55.004;73.342;2023-02-12T05:59:43;102273.75;;;-17.52;46.49
69737;BME280;64476;55.004;73.342;2023-02-12T06:02:49;102274.41;;;-17.35;46.94
69737;BME280;64476;55.004;73.342;2023-02-12T06:05:52;102307.31;;;-17.05;46.32
69737;BME280;64476;55.004;73.342;2023-02-12T06:08:55;102306.50;;;-16.81;46.12
69737;BME280;64476;55.004;73.342;2023-02-12T06:12:05;102306.19;;;-16.67;45.75
69737;BME280;64476;55.004;73.342;2023-02-12T06:15:07;102331.00;;;-16.29;46.41
69737;BME280;64476;55.004;73.342;2023-02-12T06:18:09;102282.22;;;-16.33;45.30
69737;BME280;64476;55.004;73.342;2023-02-12T06:21:11;102249.53;;;-16.31;46.52
69737;BME280;64476;55.004;73.342;2023-02-12T06:24:22;102255.41;;;-16.05;45.98
69737;BME280;64476;55.004;73.342;2023-02-12T06:27:23;102225.09;;;-16.08;45.18
69737;BME280;64476;55.004;73.342;2023-02-12T06:30:25;102290.94;;;-15.42;45.04
69737;BME280;64476;55.004;73.342;2023-02-12T06:33:26;102327.41;;;-15.04;45.60
69737;BME280;64476;55.004;73.342;2023-02-12T06:36:40;102280.88;;;-15.13;45.63
69737;BME280;64476;55.004;73.342;2023-02-12T06:39:52;102319.16;;;-14.68;45.46
69737;BME280;64476;55.004;73.342;2023-02-12T06:42:54;102297.16;;;-14.74;45.28
69737;BME280;64476;55.004;73.342;2023-02-12T06:45:59;102283.53;;;-14.79;44.92
69737;BME280;64476;55.004;73.342;2023-02-12T06:49:01;102342.09;;;-14.30;45.12
69737;BME280;64476;55.004;73.342;2023-02-12T06:52:09;102285.41;;;-14.41;44.71
69737;BME280;64476;55.004;73.342;2023-02-12T06:55:11;102331.38;;;-13.87;44.58
69737;BME280;64476;55.004;73.342;2023-02-12T06:58:17;102327.72;;;-13.65;44.18
69737;BME280;64476;55.004;73.342;2023-02-12T07:01:21;102319.59;;;-13.53;43.99
69737;BME280;64476;55.004;73.342;2023-02-12T07:04:33;102326.75;;;-13.34;43.46
69737;BME280;64476;55.004;73.342;2023-02-12T07:07:45;102270.84;;;-13.46;43.56
69737;BME280;64476;55.004;73.342;2023-02-12T07:10:48;102249.03;;;-13.41;42.89
69737;BME280;64476;55.004;73.342;2023-02-12T07:14:00;102266.44;;;-13.15;42.61
69737;BME280;64476;55.004;73.342;2023-02-12T07:17:02;102217.84;;;-13.40;42.66
69737;BME280;64476;55.004;73.342;2023-02-12T07:20:11;102302.41;;;-12.89;42.02
69737;BME280;64476;55.004;73.342;2023-02-12T07:23:13;102306.03;;;-12.78;41.87
69737;BME280;64476;55.004;73.342;2023-02-12T07:26:25;102284.78;;;-12.85;42.33
69737;BME280;64476;55.004;73.342;2023-02-12T07:29:26;102257.00;;;-12.83;41.83
69737;BME280;64476;55.004;73.342;2023-02-12T07:32:28;102268.31;;;-12.64;41.38
69737;BME280;64476;55.004;73.342;2023-02-12T07:35:30;102241.22;;;-12.68;41.68
69737;BME280;64476;55.004;73.342;2023-02-12T07:38:31;102281.56;;;-12.31;41.37
69737;BME280;64476;55.004;73.342;2023-02-12T07:41:36;102268.31;;;-12.16;41.90
69737;BME280;64476;55.004;73.342;2023-02-12T07:44:37;102288.00;;;-11.99;41.23
69737;BME280;64476;55.004;73.342;2023-02-12T07:47:39;102215.75;;;-12.26;41.25
69737;BME280;64476;55.004;73.342;2023-02-12T07:50:46;102266.25;;;-11.87;41.36
69737;BME280;64476;55.004;73.342;2023-02-12T07:53:49;102239.94;;;-11.92;40.88
69737;BME280;64476;55.004;73.342;2023-02-12T07:56:53;102197.22;;;-12.23;41.62
69737;BME280;64476;55.004;73.342;2023-02-12T07:59:54;102280.00;;;-11.72;41.42
69737;BME280;64476;55.004;73.342;2023-02-12T08:03:01;102285.88;;;-11.73;41.80
69737;BME280;64476;55.004;73.342;2023-02-12T08:06:19;102243.22;;;-12.00;41.53
69737;BME280;64476;55.004;73.342;2023-02-12T08:09:31;102277.25;;;-11.85;41.92
69737;BME280;64476;55.004;73.342;2023-02-12T08:12:33;102274.59;;;-11.92;41.92
69737;BME280;64476;55.004;73.342;2023-02-12T08:15:46;102273.81;;;-11.90;42.02
69737;BME280;64476;55.004;73.342;2023-02-12T08:18:48;102168.06;;;-12.52;41.37
69737;BME280;64476;55.004;73.342;2023-02-12T08:22:05;102223.59;;;-12.12;41.16
69737;BME280;64476;55.004;73.342;2023-02-12T08:25:17;102233.69;;;-12.14;41.12
69737;BME280;64476;55.004;73.342;2023-02-12T08:28:19;102277.13;;;-11.94;41.60
69737;BME280;64476;55.004;73.342;2023-02-12T08:31:25;102279.72;;;-11.91;41.74
69737;BME280;64476;55.004;73.342;2023-02-12T08:34:30;102288.28;;;-11.84;41.77
69737;BME280;64476;55.004;73.342;2023-02-12T08:37:42;102289.31;;;-11.73;41.85
69737;BME280;64476;55.004;73.342;2023-02-12T08:40:46;102279.22;;;-11.67;41.47
69737;BME280;64476;55.004;73.342;2023-02-12T08:43:49;102295.69;;;-11.42;41.13
69737;BME280;64476;55.004;73.342;2023-02-12T08:47:02;102245.66;;;-11.49;41.30
69737;BME280;64476;55.004;73.342;2023-02-12T08:50:04;102277.53;;;-11.07;40.98
69737;BME280;64476;55.004;73.342;2023-02-12T08:53:07;102223.34;;;-11.08;40.97
69737;BME280;64476;55.004;73.342;2023-02-12T08:56:11;102287.53;;;-10.49;41.38
69737;BME280;64476;55.004;73.342;2023-02-12T08:59:14;102279.31;;;-10.24;40.63
69737;BME280;64476;55.004;73.342;2023-02-12T09:02:16;102244.56;;;-10.23;40.97
69737;BME280;64476;55.004;73.342;2023-02-12T09:05:25;102214.16;;;-10.13;40.36
69737;BME280;64476;55.004;73.342;2023-02-12T09:08:27;102259.44;;;-9.61;40.51
69737;BME280;64476;55.004;73.342;2023-02-12T09:11:29;102223.75;;;-9.69;39.92
69737;BME280;64476;55.004;73.342;2023-02-12T09:14:31;102244.31;;;-9.37;40.39
69737;BME280;64476;55.004;73.342;2023-02-12T09:17:32;102256.25;;;-9.23;40.44
69737;BME280;64476;55.004;73.342;2023-02-12T09:20:46;102209.50;;;-9.38;40.00
69737;BME280;64476;55.004;73.342;2023-02-12T09:23:48;102264.84;;;-9.03;39.78
69737;BME280;64476;55.004;73.342;2023-02-12T09:26:50;102221.44;;;-9.32;40.11
69737;BME280;64476;55.004;73.342;2023-02-12T09:29:51;102264.88;;;-9.00;39.95
69737;BME280;64476;55.004;73.342;2023-02-12T09:32:54;102253.81;;;-9.02;39.53
69737;BME280;64476;55.004;73.342;2023-02-12T09:36:03;102245.28;;;-9.13;39.33
69737;BME280;64476;55.004;73.342;2023-02-12T09:39:16;102268.25;;;-9.04;39.29
69737;BME280;64476;55.004;73.342;2023-02-12T09:45:54;102215.44;;;-9.40;38.56
69737;BME280;64476;55.004;73.342;2023-02-12T09:49:43;102250.38;;;-9.15;38.40
69737;BME280;64476;55.004;73.342;2023-02-12T09:52:50;102258.06;;;-9.02;39.28
69737;BME280;64476;55.004;73.342;2023-02-12T09:55:53;102246.09;;;-9.20;38.34
69737;BME280;64476;55.004;73.342;2023-02-12T09:58:59;102234.22;;;-9.23;38.74
69737;BME280;64476;55.004;73.342;2023-02-12T10:02:19;102235.91;;;-9.22;37.97
69737;BME280;64476;55.004;73.342;2023-02-12T10:05:35;102221.41;;;-9.30;37.62
69737;BME280;64476;55.004;73.342;2023-02-12T10:08:45;102272.50;;;-8.98;38.36
69737;BME280;64476;55.004;73.342;2023-02-12T10:12:01;102273.38;;;-8.96;38.36
69737;BME280;64476;55.004;73.342;2023-02-12T10:15:37;102282.69;;;-9.03;38.41
69737;BME280;64476;55.004;73.342;2023-02-12T10:19:20;102279.22;;;-9.13;38.45
69737;BME280;64476;55.004;73.342;2023-02-12T10:26:48;102248.44;;;-9.57;38.53
69737;BME280;64476;55.004;73.342;2023-02-12T10:30:24;102288.38;;;-9.48;38.80
69737;BME280;64476;55.004;73.342;2023-02-12T10:33:38;102255.91;;;-9.81;38.48
69737;BME280;64476;55.004;73.342;2023-02-12T10:36:42;102237.19;;;-9.94;38.59
69737;BME280;64476;55.004;73.342;2023-02-12T10:43:12;102268.47;;;-10.06;38.38
69737;BME280;64476;55.004;73.342;2023-02-12T10:46:19;102237.63;;;-10.41;38.29
69737;BME280;64476;55.004;73.342;2023-02-12T10:49:21;102243.38;;;-10.62;37.91
69737;BME280;64476;55.004;73.342;2023-02-12T10:52:29;102316.34;;;-10.47;38.33
69737;BME280;64476;55.004;73.342;2023-02-12T10:55:35;102319.50;;;-10.68;38.19
69737;BME280;64476;55.004;73.342;2023-02-12T10:58:51;102329.25;;;-11.00;38.40
69737;BME280;64476;55.004;73.342;2023-02-12T11:01:58;102289.59;;;-11.51;38.54
69737;BME280;64476;55.004;73.342;2023-02-12T11:05:21;102311.41;;;-11.64;39.12
69737;BME280;64476;55.004;73.342;2023-02-12T11:08:35;102334.13;;;-11.70;38.81
69737;BME280;64476;55.004;73.342;2023-02-12T11:11:38;102301.63;;;-11.94;39.27
69737;BME280;64476;55.004;73.342;2023-02-12T11:15:14;102349.97;;;-11.84;39.24
69737;BME280;64476;55.004;73.342;2023-02-12T11:18:32;102326.63;;;-12.14;39.40
69737;BME280;64476;55.004;73.342;2023-02-12T11:21:34;102344.28;;;-12.17;39.19
69737;BME280;64476;55.004;73.342;2023-02-12T11:24:37;102295.53;;;-12.54;39.32
69737;BME280;64476;55.004;73.342;2023-02-12T11:28:04;102332.84;;;-12.44;40.20
69737;BME280;64476;55.004;73.342;2023-02-12T11:31:22;102349.81;;;-12.40;39.59
69737;BME280;64476;55.004;73.342;2023-02-12T11:34:30;102359.09;;;-12.40;40.07
69737;BME280;64476;55.004;73.342;2023-02-12T11:37:42;102349.59;;;-12.52;40.25
69737;BME280;64476;55.004;73.342;2023-02-12T11:40:46;102289.69;;;-12.92;39.85
69737;BME280;64476;55.004;73.342;2023-02-12T11:43:53;102367.16;;;-12.61;41.04
69737;BME280;64476;55.004;73.342;2023-02-12T11:46:58;102304.69;;;-13.02;41.19
69737;BME280;64476;55.004;73.342;2023-02-12T11:50:31;102310.69;;;-12.96;41.13
69737;BME280;64476;55.004;73.342;2023-02-12T11:53:42;102347.59;;;-12.68;41.38
69737;BME280;64476;55.004;73.342;2023-02-12T11:56:49;102346.66;;;-12.72;41.31
69737;BME280;64476;55.004;73.342;2023-02-12T11:59:51;102302.03;;;-13.08;41.88
69737;BME280;64476;55.004;73.342;2023-02-12T12:03:05;102376.06;;;-12.79;42.17
69737;BME280;64476;55.004;73.342;2023-02-12T12:06:40;102385.84;;;-12.94;42.05
69737;BME280;64476;55.004;73.342;2023-02-12T12:13:27;102370.03;;;-13.23;42.12
69737;BME280;64476;55.004;73.342;2023-02-12T12:16:54;102373.91;;;-13.37;42.06
69737;BME280;64476;55.004;73.342;2023-02-12T12:20:21;102346.97;;;-13.70;42.40
69737;BME280;64476;55.004;73.342;2023-02-12T12:26:33;102404.28;;;-13.69;42.89
69737;BME280;64476;55.004;73.342;2023-02-12T12:29:45;102412.88;;;-13.64;42.23
69737;BME280;64476;55.004;73.342;2023-02-12T12:32:53;102402.13;;;-13.88;41.24
69737;BME280;64476;55.004;73.342;2023-02-12T12:40:02;102432.13;;;-14.01;41.22
69737;BME280;64476;55.004;73.342;2023-02-12T12:43:20;102441.09;;;-14.12;41.72
69737;BME280;64476;55.004;73.342;2023-02-12T12:57:05;102438.84;;;-14.61;41.31
69737;BME280;64476;55.004;73.342;2023-02-12T13:10:38;102426.63;;;-14.76;41.67
69737;BME280;64476;55.004;73.342;2023-02-12T13:13:49;102465.84;;;-14.59;41.82
69737;BME280;64476;55.004;73.342;2023-02-12T13:20:30;102475.13;;;-14.58;41.88
69737;BME280;64476;55.004;73.342;2023-02-12T13:23:46;102437.63;;;-14.74;42.06
69737;BME280;64476;55.004;73.342;2023-02-12T13:27:33;102418.25;;;-15.02;42.31
69737;BME280;64476;55.004;73.342;2023-02-12T13:30:41;102405.28;;;-15.14;42.48
69737;BME280;64476;55.004;73.342;2023-02-12T13:33:51;102446.34;;;-14.91;41.92
69737;BME280;64476;55.004;73.342;2023-02-12T13:37:06;102469.03;;;-14.93;42.20
69737;BME280;64476;55.004;73.342;2023-02-12T13:53:57;102453.06;;;-15.19;43.82
69737;BME280;64476;55.004;73.342;2023-02-12T13:57:08;102289.31;;;-16.21;43.15
69737;BME280;64476;55.004;73.342;2023-02-12T14:07:52;102456.00;;;-15.56;43.58
69737;BME280;64476;55.004;73.342;2023-02-12T14:11:06;102460.75;;;-15.65;43.63
69737;BME280;64476;55.004;73.342;2023-02-12T14:14:27;102457.06;;;-15.75;43.60
69737;BME280;64476;55.004;73.342;2023-02-12T14:20:34;102397.28;;;-16.05;44.28
69737;BME280;64476;55.004;73.342;2023-02-12T14:23:44;102386.31;;;-16.07;44.44
69737;BME280;64476;55.004;73.342;2023-02-12T14:26:51;102438.47;;;-15.79;43.50
69737;BME280;64476;55.004;73.342;2023-02-12T14:33:21;102428.22;;;-15.85;44.40
69737;BME280;64476;55.004;73.342;2023-02-12T14:39:33;102356.44;;;-16.22;43.50
69737;BME280;64476;55.004;73.342;2023-02-12T14:45:46;102400.63;;;-16.06;43.63
69737;BME280;64476;55.004;73.342;2023-02-12T14:48:54;102420.28;;;-15.96;42.96
69737;BME280;64476;55.004;73.342;2023-02-12T14:52:13;102428.28;;;-16.07;43.63
69737;BME280;64476;55.004;73.342;2023-02-12T14:55:31;102430.72;;;-16.09;43.29
69737;BME280;64476;55.004;73.342;2023-02-12T14:58:36;102431.97;;;-16.22;43.79
69737;BME280;64476;55.004;73.342;2023-02-12T15:01:41;102356.81;;;-16.59;43.31
69737;BME280;64476;55.004;73.342;2023-02-12T15:04:45;102430.31;;;-16.21;43.48
69737;BME280;64476;55.004;73.342;2023-02-12T15:07:51;102352.16;;;-16.71;44.08
69737;BME280;64476;55.004;73.342;2023-02-12T15:11:13;102427.56;;;-16.27;43.38
69737;BME280;64476;55.004;73.342;2023-02-12T15:14:26;102382.81;;;-16.58;44.11
69737;BME280;64476;55.004;73.342;2023-02-12T15:17:47;102315.88;;;-17.00;44.05
69737;BME280;64476;55.004;73.342;2023-02-12T15:21:02;102431.47;;;-16.35;44.80
69737;BME280;64476;55.004;73.342;2023-02-12T15:24:11;102433.91;;;-16.37;43.44
69737;BME280;64476;55.004;73.342;2023-02-12T15:27:14;102426.31;;;-16.38;43.67
69737;BME280;64476;55.004;73.342;2023-02-12T15:30:19;102384.94;;;-16.69;43.94
69737;BME280;64476;55.004;73.342;2023-02-12T15:33:33;102431.94;;;-16.46;44.23
69737;BME280;64476;55.004;73.342;2023-02-12T15:36:35;102380.31;;;-16.81;43.75
69737;BME280;64476;55.004;73.342;2023-02-12T15:40:12;102423.34;;;-16.51;45.00
69737;BME280;64476;55.004;73.342;2023-02-12T15:43:17;102418.22;;;-16.54;44.17
69737;BME280;64476;55.004;73.342;2023-02-12T15:46:29;102374.41;;;-16.81;44.70
69737;BME280;64476;55.004;73.342;2023-02-12T15:49:39;102378.69;;;-16.79;44.38
69737;BME280;64476;55.004;73.342;2023-02-12T15:52:44;102394.06;;;-16.71;44.14
69737;BME280;64476;55.004;73.342;2023-02-12T15:55:49;102330.63;;;-17.09;44.57
69737;BME280;64476;55.004;73.342;2023-02-12T15:58:54;102382.88;;;-16.79;45.11
69737;BME280;64476;55.004;73.342;2023-02-12T16:01:59;102372.53;;;-16.87;44.99
69737;BME280;64476;55.004;73.342;2023-02-12T16:05:36;102314.88;;;-17.27;44.59
69737;BME280;64476;55.004;73.342;2023-02-12T16:08:48;102401.63;;;-16.71;44.63
69737;BME280;64476;55.004;73.342;2023-02-12T16:12:02;102369.56;;;-16.99;44.68
69737;BME280;64476;55.004;73.342;2023-02-12T16:15:05;102404.78;;;-16.77;45.11
69737;BME280;64476;55.004;73.342;2023-02-12T16:18:22;102339.47;;;-17.19;45.11
69737;BME280;64476;55.004;73.342;2023-02-12T16:21:24;102403.25;;;-16.73;45.02
69737;BME280;64476;55.004;73.342;2023-02-12T16:24:28;102405.75;;;-16.73;44.93
69737;BME280;64476;55.004;73.342;2023-02-12T16:27:32;102319.91;;;-17.27;44.95
69737;BME280;64476;55.004;73.342;2023-02-12T16:30:38;102408.28;;;-16.73;44.32
69737;BME280;64476;55.004;73.342;2023-02-12T16:33:53;102370.63;;;-16.93;43.91
69737;BME280;64476;55.004;73.342;2023-02-12T16:37:00;102403.97;;;-16.76;43.92
69737;BME280;64476;55.004;73.342;2023-02-12T16:40:18;102412.44;;;-16.74;44.64
69737;BME280;64476;55.004;73.342;2023-02-12T16:43:28;102402.06;;;-16.81;43.99
69737;BME280;64476;55.004;73.342;2023-02-12T16:46:32;102412.25;;;-16.78;44.65
69737;BME280;64476;55.004;73.342;2023-02-12T16:49:34;102356.34;;;-17.16;44.50
69737;BME280;64476;55.004;73.342;2023-02-12T16:52:41;102342.38;;;-17.32;44.58
69737;BME280;64476;55.004;73.342;2023-02-12T16:55:48;102394.50;;;-17.04;44.81
69737;BME280;64476;55.004;73.342;2023-02-12T16:58:55;102375.75;;;-17.12;45.31
69737;BME280;64476;55.004;73.342;2023-02-12T17:02:11;102250.34;;;-17.94;44.49
69737;BME280;64476;55.004;73.342;2023-02-12T17:05:15;102399.66;;;-17.01;45.21
69737;BME280;64476;55.004;73.342;2023-02-12T17:08:29;102371.84;;;-17.28;44.75
69737;BME280;64476;55.004;73.342;2023-02-12T17:11:36;102377.59;;;-17.30;44.31
69737;BME280;64476;55.004;73.342;2023-02-12T17:14:37;102368.66;;;-17.45;44.75
69737;BME280;64476;55.004;73.342;2023-02-12T17:17:39;102378.41;;;-17.31;44.84
69737;BME280;64476;55.004;73.342;2023-02-12T17:20:55;102393.53;;;-17.30;44.70
69737;BME280;64476;55.004;73.342;2023-02-12T17:24:19;102422.28;;;-17.23;44.72
69737;BME280;64476;55.004;73.342;2023-02-12T17:27:31;102304.41;;;-18.02;44.84
69737;BME280;64476;55.004;73.342;2023-02-12T17:30:33;102407.81;;;-17.50;45.22
69737;BME280;64476;55.004;73.342;2023-02-12T17:33:35;102421.28;;;-17.48;44.74
69737;BME280;64476;55.004;73.342;2023-02-12T17:36:41;102355.28;;;-17.85;44.35
69737;BME280;64476;55.004;73.342;2023-02-12T17:39:43;102427.38;;;-17.43;45.28
69737;BME280;64476;55.004;73.342;2023-02-12T17:42:45;102420.69;;;-17.42;44.97
69737;BME280;64476;55.004;73.342;2023-02-12T17:45:56;102347.09;;;-17.81;45.81
69737;BME280;64476;55.004;73.342;2023-02-12T17:48:59;102398.63;;;-17.49;44.73
69737;BME280;64476;55.004;73.342;2023-02-12T17:52:07;102398.31;;;-17.57;45.69
69737;BME280;64476;55.004;73.342;2023-02-12T17:55:09;102417.56;;;-17.36;44.90
69737;BME280;64476;55.004;73.342;2023-02-12T17:58:13;102416.66;;;-17.38;45.72
69737;BME280;64476;55.004;73.342;2023-02-12T18:01:25;102312.31;;;-17.93;45.28
69737;BME280;64476;55.004;73.342;2023-02-12T18:04:36;102170.75;;;-18.80;45.26
69737;BME280;64476;55.004;73.342;2023-02-12T18:07:38;102346.16;;;-17.63;45.94
69737;BME280;64476;55.004;73.342;2023-02-12T18:10:46;102358.84;;;-17.59;45.06
69737;BME280;64476;55.004;73.342;2023-02-12T18:13:51;102390.53;;;-17.42;45.88
69737;BME280;64476;55.004;73.342;2023-02-12T18:16:53;102407.41;;;-17.40;45.15
69737;BME280;64476;55.004;73.342;2023-02-12T18:19:55;102303.88;;;-17.95;45.67
69737;BME280;64476;55.004;73.342;2023-02-12T18:22:59;102400.66;;;-17.41;45.25
69737;BME280;64476;55.004;73.342;2023-02-12T18:26:09;102393.91;;;-17.42;45.91
69737;BME280;64476;55.004;73.342;2023-02-12T18:29:11;102296.38;;;-17.94;45.05
69737;BME280;64476;55.004;73.342;2023-02-12T18:36:06;102359.47;;;-17.65;46.04